Толмачево

Карта отелей и гостиниц, располагающихся рядом с аэропортом Толмачево :

Толмачево
Новосибирск
Новосибирская область 55° 1' 59.5812" N, 82° 35' 57.0012" E
Код аэродрома ИКАО
UNNT
Код аэродрома RU
УННТ
Координаты
N55.03322° E082.59917°
Превышение над уровнем моря
111
Основная полоса
16/34
Курс магнитный
161,3/341,3
Длина основной ВПП
3607
Ширина основной ВПП
45
Покрытие основной ВПП
Твёрдое
Освещение ВПП
Постоянное
Тип: 
Аэродром
Класс аэродрома: 
Международный
Принадлежность: 
ГА
Статус: 
Действующий
Сайт: 
http://tolmachevo.ru/
Страна: 
Россия
Регион: 
Новосибирская область
Город: 
Новосибирск
Дополнительная информация: 
Оператор: ОАО Международный аэропорт Новосибирск (Толмачёво). Располагает двумя ВПП. По техническим характеристикам летное поле относится к аэродромам класса А. Один из трех аэропортов азиатской части России, имеющих ВПП II категории ICAO. Нкр.=(700)м. Военный индекс: XNNT / ЬННТ.
Схемы аэропортов: 
Погода: 

Авиационная погода в Толмачево

Регион: 
Погода METAR: 
UNNT 241700Z 20005MPS CAVOK 09/06 Q1020 R25/090070 R16/090070 NOSIG RMK QFE755/1006
Время наблюдения
2021-10-24T17:00:00Z
Температура C
9.0
Точка росы
6.0
Направление ветра
200
Скорость ветра (узлы)
10
Метео видимость
6.21
Явления погоды
Условия полета
VFR
Аэропорт подробнее: 

Найти трансфер

С помощью этой формы Вы можете найти трансфер из аэропорта Толмачево в город, аэропорт или вокзал:

Карта места

Javascript is required to view this map.

Погода в аэропортах:

Авиационная погода в Вардё

Регион: 
Погода METAR: 
ENSS 241650Z 34006KT 9999 VCSH SCT030 M01/M06 Q1013 RMK WIND 500FT 36014KT
Время наблюдения
2021-10-24T16:50:00Z
Температура C
-1.0
Точка росы
-6.0
Направление ветра
340
Скорость ветра (узлы)
6
Метео видимость
6.21
Явления погоды
VCSH
Условия полета
VFR

Авиационная погода в Воронеже

Регион: 
Погода METAR: 
UUOO 241700Z 33008MPS 9000 -SHRA BKN010 OVC///CB 03/01 Q1020 R30/290155 NOSIG RMK QFE752
Время наблюдения
2021-10-24T17:00:00Z
Температура C
3.0
Точка росы
1.0
Направление ветра
330
Скорость ветра (узлы)
16
Метео видимость
5.59
Явления погоды
-SHRA
Условия полета
MVFR
Аэропорт подробнее: 

Авиационная погода в Берлевоге

Регион: 
Погода METAR: 
ENBV 221920Z 01015KT 9999 VCSH FEW008 SCT030 BKN045 00/M06 Q1000
Время наблюдения
2021-10-22T19:20:00Z
Температура C
0.0
Точка росы
-6.0
Направление ветра
10
Скорость ветра (узлы)
15
Метео видимость
6.21
Явления погоды
VCSH
Условия полета
VFR

Авиационная погода в Рощино

Регион: 
Погода METAR: 
USTR 241500Z 14006MPS 3200 -SHRA BR SCT007 OVC015CB 06/06 Q1004 R21/290060 R30/290060 TEMPO 3100 -SHRA BR BKN003 BKN016CB
Время наблюдения
2021-10-24T15:00:00Z
Температура C
6.0
Точка росы
6.0
Направление ветра
140
Скорость ветра (узлы)
12
Метео видимость
1.99
Явления погоды
-SHRA BR
Условия полета
IFR
Аэропорт подробнее: